createdAt,value
2016-10-01T00:00:12.704Z,22.48
2016-10-01T00:01:12.324Z,22.49
2016-10-01T00:02:12.756Z,22.48
2016-10-01T00:03:15.245Z,22.48
2016-10-01T00:04:12.533Z,22.48
2016-10-01T00:05:12.814Z,22.48
2016-10-01T00:06:12.865Z,22.47
2016-10-01T00:07:12.335Z,22.47
2016-10-01T00:08:13.398Z,22.47
2016-10-01T00:09:13.347Z,22.47
2016-10-01T00:10:13.225Z,22.47
2016-10-01T00:11:13.052Z,22.51
2016-10-01T00:12:12.648Z,22.47
2016-10-01T00:13:18.006Z,22.48
2016-10-01T00:14:12.911Z,22.47
2016-10-01T00:15:12.735Z,22.49
2016-10-01T00:16:13.799Z,22.46
2016-10-01T00:17:12.911Z,22.46
2016-10-01T00:18:12.388Z,22.47
2016-10-01T00:19:12.854Z,22.47
2016-10-01T00:20:12.530Z,22.46
2016-10-01T00:21:12.475Z,22.46
2016-10-01T00:22:13.017Z,22.50
2016-10-01T00:23:14.326Z,22.46
2016-10-01T00:24:13.503Z,22.46
2016-10-01T00:25:12.859Z,22.46
2016-10-01T00:26:14.935Z,22.45
2016-10-01T00:27:12.998Z,22.46
2016-10-01T00:28:15.156Z,22.46
2016-10-01T00:29:12.624Z,22.46
2016-10-01T00:30:13.666Z,22.45
2016-10-01T00:31:14.638Z,22.45
2016-10-01T00:32:13.345Z,22.46
2016-10-01T00:33:13.080Z,22.49
2016-10-01T00:34:13.573Z,22.46
2016-10-01T00:35:12.640Z,22.48
2016-10-01T00:36:11.975Z,22.45
2016-10-01T00:37:12.632Z,22.47
2016-10-01T00:38:09.432Z,22.44
2016-10-01T00:39:14.109Z,22.45
2016-10-01T00:40:12.642Z,22.45
2016-10-01T00:41:12.203Z,22.45
2016-10-01T00:42:12.607Z,22.46
2016-10-01T00:43:12.010Z,22.45
2016-10-01T00:44:12.817Z,22.51
2016-10-01T00:45:13.017Z,22.45
2016-10-01T00:46:12.919Z,22.45
2016-10-01T00:47:12.854Z,22.45
2016-10-01T00:48:12.348Z,22.45
2016-10-01T00:49:13.405Z,22.44
2016-10-01T00:50:13.425Z,22.44
2016-10-01T00:51:13.523Z,22.45
2016-10-01T00:52:13.453Z,22.45
2016-10-01T00:53:11.617Z,22.44
2016-10-01T00:54:13.031Z,22.45
2016-10-01T00:55:13.950Z,22.45
2016-10-01T00:56:12.328Z,22.45
2016-10-01T00:57:14.496Z,22.44
2016-10-01T00:58:13.181Z,22.49
2016-10-01T00:59:12.504Z,22.45
2016-10-01T01:00:14.148Z,22.46
2016-10-01T01:01:11.266Z,22.44
2016-10-01T01:02:13.507Z,22.97
2016-10-01T01:03:15.432Z,23.03
2016-10-01T01:04:13.904Z,23.04
2016-10-01T01:05:12.607Z,22.54
2016-10-01T01:06:13.141Z,22.49
2016-10-01T01:07:13.531Z,22.48
2016-10-01T01:08:13.416Z,22.46
2016-10-01T01:09:14.613Z,22.45
2016-10-01T01:10:13.916Z,22.46
2016-10-01T01:11:14.921Z,22.44
2016-10-01T01:12:14.761Z,22.44
2016-10-01T01:13:15.425Z,22.45
2016-10-01T01:14:14.474Z,22.50
2016-10-01T01:15:13.783Z,22.44
2016-10-01T01:16:13.974Z,22.44
2016-10-01T01:17:11.395Z,22.44
2016-10-01T01:18:13.855Z,22.45
2016-10-01T01:19:14.992Z,22.44
2016-10-01T01:20:17.556Z,22.45
2016-10-01T01:21:14.930Z,22.44
2016-10-01T01:22:15.855Z,22.44
2016-10-01T01:23:10.496Z,22.44
2016-10-01T01:24:13.916Z,22.45
2016-10-01T01:25:14.718Z,22.45
2016-10-01T01:26:14.144Z,22.45
2016-10-01T01:27:13.785Z,22.44
2016-10-01T01:28:12.180Z,22.44
2016-10-01T01:29:12.654Z,22.44
2016-10-01T01:30:12.610Z,22.44
2016-10-01T01:31:12.355Z,22.44
2016-10-01T01:32:12.821Z,22.44
2016-10-01T01:33:13.021Z,22.44
2016-10-01T01:34:13.674Z,22.44
2016-10-01T01:35:12.840Z,22.42
2016-10-01T01:36:13.011Z,22.43
2016-10-01T01:37:12.477Z,22.43
2016-10-01T01:38:10.332Z,22.42
2016-10-01T01:39:12.541Z,22.43
2016-10-01T01:40:13.681Z,22.43
2016-10-01T01:41:14.883Z,22.42
2016-10-01T01:42:14.153Z,22.42
2016-10-01T01:43:09.931Z,22.42
2016-10-01T01:44:14.513Z,22.42
2016-10-01T01:45:13.012Z,22.42
2016-10-01T01:46:12.482Z,22.42
2016-10-01T01:47:13.642Z,22.43
2016-10-01T01:48:12.601Z,22.44
2016-10-01T01:49:12.064Z,22.94
2016-10-01T01:50:11.328Z,23.00
2016-10-01T01:51:13.612Z,23.02
2016-10-01T01:52:12.266Z,22.55
2016-10-01T01:53:13.634Z,22.46
2016-10-01T01:54:13.021Z,22.45
2016-10-01T01:55:13.019Z,22.43
2016-10-01T01:56:13.465Z,22.43
2016-10-01T01:57:13.080Z,22.42
2016-10-01T01:58:11.124Z,22.41
2016-10-01T01:59:13.036Z,22.59
2016-10-01T02:00:12.746Z,22.48
2016-10-01T02:01:10.175Z,22.44
2016-10-01T02:02:14.335Z,22.43
2016-10-01T02:03:13.288Z,22.44
2016-10-01T02:04:18.228Z,22.43
2016-10-01T02:05:13.795Z,22.41
2016-10-01T02:06:12.855Z,22.41
2016-10-01T02:07:12.286Z,22.41
2016-10-01T02:08:13.474Z,22.42
2016-10-01T02:09:09.792Z,22.41
2016-10-01T02:10:11.950Z,22.41
2016-10-01T02:11:12.994Z,22.41
2016-10-01T02:12:12.846Z,22.43
2016-10-01T02:13:13.185Z,22.41
2016-10-01T02:14:13.453Z,22.42
2016-10-01T02:15:15.330Z,22.40
2016-10-01T02:16:12.515Z,22.41
2016-10-01T02:17:10.373Z,22.40
2016-10-01T02:18:14.097Z,22.40
2016-10-01T02:19:14.670Z,22.40
2016-10-01T02:20:12.707Z,22.44
2016-10-01T02:21:13.043Z,22.40
2016-10-01T02:22:13.209Z,22.40
2016-10-01T02:23:13.221Z,22.41
2016-10-01T02:24:12.697Z,22.41
2016-10-01T02:25:13.576Z,22.40
2016-10-01T02:26:12.845Z,22.40
2016-10-01T02:27:13.496Z,22.40
2016-10-01T02:28:14.555Z,22.39
2016-10-01T02:29:13.304Z,22.44
2016-10-01T02:30:13.260Z,22.40
2016-10-01T02:31:11.379Z,22.39
2016-10-01T02:32:13.645Z,22.41
2016-10-01T02:33:13.028Z,22.43
2016-10-01T02:34:14.920Z,22.40
2016-10-01T02:35:12.444Z,22.41
2016-10-01T02:36:14.036Z,22.40
2016-10-01T02:37:12.372Z,22.39
2016-10-01T02:38:12.610Z,22.45
2016-10-01T02:39:13.932Z,22.39
2016-10-01T02:40:12.328Z,22.39
2016-10-01T02:41:13.365Z,22.39
2016-10-01T02:42:12.842Z,22.39
2016-10-01T02:43:13.035Z,22.38
2016-10-01T02:44:14.064Z,22.38
2016-10-01T02:45:13.397Z,22.38
2016-10-01T02:46:13.656Z,22.39
2016-10-01T02:47:12.578Z,22.39
2016-10-01T02:48:13.777Z,22.39
2016-10-01T02:49:12.661Z,22.43
2016-10-01T02:50:12.887Z,22.38
2016-10-01T02:51:13.027Z,22.38
2016-10-01T02:52:13.390Z,22.37
2016-10-01T02:53:12.843Z,22.38
2016-10-01T02:54:11.057Z,22.38
2016-10-01T02:55:12.953Z,22.39
2016-10-01T02:56:12.837Z,22.38
2016-10-01T02:57:12.345Z,22.37
2016-10-01T02:58:14.304Z,22.37
2016-10-01T02:59:13.438Z,22.40
2016-10-01T03:00:13.447Z,22.37
2016-10-01T03:01:14.542Z,22.37
2016-10-01T03:02:15.570Z,22.37
2016-10-01T03:03:14.095Z,22.41
2016-10-01T03:04:12.481Z,22.37
2016-10-01T03:05:14.464Z,22.37
2016-10-01T03:06:13.993Z,22.37
2016-10-01T03:07:13.219Z,22.37
2016-10-01T03:08:14.060Z,22.36
2016-10-01T03:09:09.866Z,22.36
2016-10-01T03:10:12.420Z,22.37
2016-10-01T03:11:15.518Z,22.37
2016-10-01T03:12:13.415Z,22.40
2016-10-01T03:13:13.883Z,22.37
2016-10-01T03:14:10.320Z,22.36
2016-10-01T03:15:12.666Z,22.37
2016-10-01T03:16:10.175Z,22.36
2016-10-01T03:17:12.952Z,22.41
2016-10-01T03:18:13.272Z,22.36
2016-10-01T03:19:13.207Z,22.39
2016-10-01T03:20:12.765Z,22.88
2016-10-01T03:21:12.209Z,22.64
2016-10-01T03:22:12.701Z,22.45
2016-10-01T03:23:13.916Z,22.40
2016-10-01T03:24:13.244Z,22.39
2016-10-01T03:25:13.494Z,22.37
2016-10-01T03:26:12.853Z,22.38
2016-10-01T03:27:13.645Z,22.39
2016-10-01T03:28:12.182Z,22.37
2016-10-01T03:29:12.845Z,22.37
2016-10-01T03:30:18.368Z,22.36
2016-10-01T03:31:12.915Z,22.36
2016-10-01T03:32:13.200Z,22.37
2016-10-01T03:33:13.212Z,22.38
2016-10-01T03:34:13.194Z,22.39
2016-10-01T03:35:13.191Z,22.37
2016-10-01T03:36:13.044Z,22.39
2016-10-01T03:37:12.462Z,22.36
2016-10-01T03:38:14.039Z,22.35
2016-10-01T03:39:14.306Z,22.36
2016-10-01T03:40:12.842Z,22.36
2016-10-01T03:41:12.247Z,22.36
2016-10-01T03:42:13.208Z,22.35
2016-10-01T03:43:14.420Z,22.35
2016-10-01T03:44:13.236Z,22.39
2016-10-01T03:45:13.410Z,22.35
2016-10-01T03:46:12.727Z,22.35
2016-10-01T03:47:12.855Z,22.36
2016-10-01T03:48:13.426Z,22.35
2016-10-01T03:49:12.822Z,22.36
2016-10-01T03:50:12.990Z,22.35
2016-10-01T03:51:12.398Z,22.36
2016-10-01T03:52:12.773Z,22.35
2016-10-01T03:53:13.752Z,22.35
2016-10-01T03:54:12.407Z,22.35
2016-10-01T03:55:13.181Z,22.35
2016-10-01T03:56:13.261Z,22.35
2016-10-01T03:57:09.915Z,22.34
2016-10-01T03:58:09.643Z,22.35
2016-10-01T03:59:12.859Z,22.36
2016-10-01T04:00:12.375Z,22.35
2016-10-01T04:01:12.920Z,22.35
2016-10-01T04:02:10.305Z,22.34
2016-10-01T04:03:12.653Z,22.35
2016-10-01T04:04:12.859Z,22.34
2016-10-01T04:05:11.069Z,22.35
2016-10-01T04:06:13.095Z,22.36
2016-10-01T04:07:12.404Z,22.34
2016-10-01T04:08:13.197Z,22.38
2016-10-01T04:09:13.054Z,22.37
2016-10-01T04:10:14.325Z,22.34
2016-10-01T04:11:14.661Z,22.35
2016-10-01T04:12:12.517Z,22.34
2016-10-01T04:13:12.086Z,22.34
2016-10-01T04:14:11.349Z,22.34
2016-10-01T04:15:14.522Z,22.34
2016-10-01T04:16:15.646Z,22.34
2016-10-01T04:17:10.165Z,22.34
2016-10-01T04:18:12.985Z,22.34
2016-10-01T04:19:12.253Z,22.34
2016-10-01T04:20:13.646Z,22.34
2016-10-01T04:21:13.242Z,22.34
2016-10-01T04:22:13.639Z,22.35
2016-10-01T04:23:12.273Z,22.34
2016-10-01T04:24:12.733Z,22.35
2016-10-01T04:25:17.191Z,22.34
2016-10-01T04:26:12.655Z,22.34
2016-10-01T04:27:13.997Z,22.34
2016-10-01T04:28:13.213Z,22.34
2016-10-01T04:29:12.546Z,22.34
2016-10-01T04:30:12.097Z,22.34
2016-10-01T04:31:13.815Z,22.34
2016-10-01T04:32:16.972Z,22.33
2016-10-01T04:33:12.566Z,22.34
2016-10-01T04:34:12.578Z,22.34
2016-10-01T04:35:12.103Z,22.33
2016-10-01T04:36:13.116Z,22.34
2016-10-01T04:37:13.115Z,22.34
2016-10-01T04:38:14.206Z,22.34
2016-10-01T04:39:13.450Z,22.33
2016-10-01T04:40:13.542Z,22.33
2016-10-01T04:41:13.495Z,22.33
2016-10-01T04:42:13.163Z,22.32
2016-10-01T04:43:11.374Z,22.31
2016-10-01T04:44:13.752Z,22.32
2016-10-01T04:45:12.843Z,22.35
2016-10-01T04:46:13.035Z,22.31
2016-10-01T04:47:12.322Z,22.32
2016-10-01T04:48:09.823Z,22.31
2016-10-01T04:49:12.763Z,22.35
2016-10-01T04:50:12.087Z,22.32
2016-10-01T04:51:13.489Z,22.31
2016-10-01T04:52:12.760Z,22.31
2016-10-01T04:53:12.393Z,22.31
2016-10-01T04:54:10.912Z,22.31
2016-10-01T04:55:12.326Z,22.31
2016-10-01T04:56:12.843Z,22.31
2016-10-01T04:57:13.031Z,22.33
2016-10-01T04:58:13.663Z,22.30
2016-10-01T04:59:12.615Z,22.30
2016-10-01T05:00:12.737Z,22.31
2016-10-01T05:01:12.837Z,22.30
2016-10-01T05:02:12.296Z,22.31
2016-10-01T05:03:12.733Z,22.31
2016-10-01T05:04:13.984Z,22.30
2016-10-01T05:05:12.848Z,22.30
2016-10-01T05:06:12.389Z,22.30
2016-10-01T05:07:13.322Z,22.33
2016-10-01T05:08:14.041Z,22.30
2016-10-01T05:09:13.022Z,22.34
2016-10-01T05:10:14.316Z,22.29
2016-10-01T05:11:12.547Z,22.30
2016-10-01T05:12:12.630Z,22.30
2016-10-01T05:13:12.694Z,22.29
2016-10-01T05:14:13.432Z,22.29
2016-10-01T05:15:12.946Z,22.30
2016-10-01T05:16:12.275Z,22.29
2016-10-01T05:17:14.119Z,22.30
2016-10-01T05:18:12.820Z,22.29
2016-10-01T05:19:12.311Z,22.29
2016-10-01T05:20:12.975Z,22.29
2016-10-01T05:21:13.115Z,22.28
2016-10-01T05:22:12.497Z,22.28
2016-10-01T05:23:12.788Z,22.29
2016-10-01T05:24:12.474Z,22.29
2016-10-01T05:25:13.699Z,22.29
2016-10-01T05:26:12.158Z,22.29
2016-10-01T05:27:14.312Z,22.29
2016-10-01T05:28:10.904Z,22.28
2016-10-01T05:29:09.401Z,22.28
2016-10-01T05:30:13.004Z,22.29
2016-10-01T05:31:13.553Z,22.30
2016-10-01T05:32:12.844Z,22.29
2016-10-01T05:33:12.852Z,22.29
2016-10-01T05:34:13.447Z,22.28
2016-10-01T05:35:12.852Z,22.28
2016-10-01T05:36:12.425Z,22.29
2016-10-01T05:37:13.669Z,22.28
2016-10-01T05:38:12.174Z,22.29
2016-10-01T05:39:13.185Z,22.29
2016-10-01T05:40:12.694Z,22.29
2016-10-01T05:41:12.020Z,22.29
2016-10-01T05:42:13.702Z,22.29
2016-10-01T05:43:12.623Z,22.31
2016-10-01T05:44:12.546Z,22.44
2016-10-01T05:45:12.651Z,22.34
2016-10-01T05:46:13.078Z,22.31
2016-10-01T05:47:13.588Z,22.29
2016-10-01T05:48:13.625Z,22.28
2016-10-01T05:49:12.214Z,22.28
2016-10-01T05:50:13.523Z,22.27
2016-10-01T05:51:13.431Z,22.29
2016-10-01T05:52:12.741Z,22.28
2016-10-01T05:53:12.803Z,22.34
2016-10-01T05:54:12.650Z,22.28
2016-10-01T05:55:12.625Z,22.34
2016-10-01T05:56:12.045Z,22.28
2016-10-01T05:57:13.863Z,22.28
2016-10-01T05:58:12.368Z,22.29
2016-10-01T05:59:12.782Z,22.28
2016-10-01T06:00:12.950Z,22.28
2016-10-01T06:01:13.015Z,22.28
2016-10-01T06:02:14.220Z,22.28
2016-10-01T06:03:10.152Z,22.27
2016-10-01T06:04:12.935Z,22.33
2016-10-01T06:05:12.453Z,22.27
2016-10-01T06:06:14.475Z,22.27
2016-10-01T06:07:13.015Z,22.27
2016-10-01T06:08:14.079Z,22.27
2016-10-01T06:09:13.926Z,22.27
2016-10-01T06:10:12.636Z,22.35
2016-10-01T06:11:12.237Z,22.27
2016-10-01T06:12:13.453Z,22.26
2016-10-01T06:13:13.285Z,22.28
2016-10-01T06:14:12.954Z,22.33
2016-10-01T06:15:12.345Z,22.27
2016-10-01T06:16:14.074Z,22.27
2016-10-01T06:17:12.835Z,22.27
2016-10-01T06:18:11.312Z,22.81
2016-10-01T06:19:12.849Z,22.33
2016-10-01T06:20:12.856Z,22.30
2016-10-01T06:21:12.922Z,22.29
2016-10-01T06:22:13.945Z,22.29
2016-10-01T06:23:12.497Z,22.29
2016-10-01T06:24:12.841Z,22.29
2016-10-01T06:25:12.947Z,22.20
2016-10-01T06:26:13.405Z,21.44
2016-10-01T06:27:12.840Z,20.99
2016-10-01T06:28:13.924Z,20.58
2016-10-01T06:29:12.360Z,20.29
2016-10-01T06:30:14.673Z,20.16
2016-10-01T06:31:10.615Z,20.02
2016-10-01T06:32:13.349Z,19.96
2016-10-01T06:33:13.006Z,19.96
2016-10-01T06:34:13.031Z,19.92
2016-10-01T06:35:13.173Z,20.06
2016-10-01T06:36:13.136Z,20.45
2016-10-01T06:37:13.163Z,20.70
2016-10-01T06:38:12.667Z,20.94
2016-10-01T06:39:15.346Z,21.06
2016-10-01T06:40:13.205Z,21.22
2016-10-01T06:41:12.734Z,21.28
2016-10-01T06:42:13.832Z,21.37
2016-10-01T06:43:12.611Z,21.43
2016-10-01T06:44:12.697Z,21.49
2016-10-01T06:45:14.946Z,21.54
2016-10-01T06:46:12.947Z,21.58
2016-10-01T06:47:13.527Z,21.62
2016-10-01T06:48:13.524Z,21.65
2016-10-01T06:49:12.847Z,21.68
2016-10-01T06:50:12.323Z,21.71
2016-10-01T06:51:12.898Z,21.73
2016-10-01T06:52:12.841Z,21.74
2016-10-01T06:53:12.772Z,21.82
2016-10-01T06:54:12.224Z,21.80
2016-10-01T06:55:13.419Z,21.83
2016-10-01T06:56:12.763Z,21.82
2016-10-01T06:57:12.859Z,21.82
2016-10-01T06:58:12.905Z,22.38
2016-10-01T06:59:12.382Z,21.92
2016-10-01T07:00:15.851Z,21.91
2016-10-01T07:01:09.696Z,21.91
2016-10-01T07:02:11.585Z,21.92
2016-10-01T07:03:13.917Z,21.93
2016-10-01T07:04:12.871Z,21.98
2016-10-01T07:05:10.363Z,21.95
2016-10-01T07:06:12.060Z,21.96
2016-10-01T07:07:10.485Z,21.98
2016-10-01T07:08:16.646Z,22.00
2016-10-01T07:09:09.967Z,22.02
2016-10-01T07:10:14.174Z,22.06
2016-10-01T07:11:13.287Z,22.11
2016-10-01T07:12:14.339Z,22.12
2016-10-01T07:13:13.461Z,22.08
2016-10-01T07:14:13.037Z,22.07
2016-10-01T07:15:14.082Z,22.08
2016-10-01T07:16:12.422Z,22.08
2016-10-01T07:17:14.624Z,22.09
2016-10-01T07:18:14.110Z,22.09
2016-10-01T07:19:12.950Z,22.09
2016-10-01T07:20:10.029Z,22.09
2016-10-01T07:21:12.249Z,22.10
2016-10-01T07:22:10.193Z,22.10
2016-10-01T07:23:12.722Z,22.12
2016-10-01T07:24:12.742Z,22.17
2016-10-01T07:25:12.692Z,22.17
2016-10-01T07:26:14.070Z,22.16
2016-10-01T07:27:13.125Z,22.16
2016-10-01T07:28:09.874Z,22.16
2016-10-01T07:29:13.963Z,22.17
2016-10-01T07:30:12.526Z,22.20
2016-10-01T07:31:12.534Z,22.19
2016-10-01T07:32:12.201Z,22.20
2016-10-01T07:33:12.888Z,22.20
2016-10-01T07:34:12.435Z,22.20
2016-10-01T07:35:13.673Z,22.21
2016-10-01T07:36:12.691Z,22.22
2016-10-01T07:37:12.084Z,22.22
2016-10-01T07:38:13.316Z,22.22
2016-10-01T07:39:12.720Z,22.24
2016-10-01T07:40:12.869Z,22.24
2016-10-01T07:41:14.201Z,22.26
2016-10-01T07:42:12.669Z,22.16
2016-10-01T07:43:12.846Z,21.67
2016-10-01T07:44:11.126Z,21.36
2016-10-01T07:45:09.913Z,21.04
2016-10-01T07:46:12.954Z,20.79
2016-10-01T07:47:12.530Z,21.31
2016-10-01T07:48:13.792Z,21.33
2016-10-01T07:49:13.052Z,21.10
2016-10-01T07:50:13.285Z,20.62
2016-10-01T07:51:13.190Z,20.60
2016-10-01T07:52:14.176Z,20.63
2016-10-01T07:53:13.304Z,20.60
2016-10-01T07:54:13.665Z,20.47
2016-10-01T07:55:12.881Z,20.37
2016-10-01T07:56:15.230Z,20.32
2016-10-01T07:57:12.570Z,20.27
2016-10-01T07:58:13.173Z,20.22
2016-10-01T07:59:12.471Z,20.16
2016-10-01T08:00:14.751Z,20.15
2016-10-01T08:01:12.105Z,20.10
2016-10-01T08:02:13.124Z,20.02
2016-10-01T08:03:13.135Z,19.98
2016-10-01T08:04:12.631Z,19.99
2016-10-01T08:05:18.382Z,19.99
2016-10-01T08:06:13.508Z,19.96
2016-10-01T08:07:13.692Z,19.93
2016-10-01T08:08:12.582Z,19.94
2016-10-01T08:09:12.787Z,19.97
2016-10-01T08:10:12.236Z,20.01
2016-10-01T08:11:12.735Z,20.06
2016-10-01T08:12:12.175Z,20.08
2016-10-01T08:13:12.926Z,20.16
2016-10-01T08:14:12.416Z,20.09
2016-10-01T08:15:12.816Z,20.08
2016-10-01T08:16:14.025Z,20.10
2016-10-01T08:17:12.966Z,20.19
2016-10-01T08:18:13.476Z,20.14
2016-10-01T08:19:12.852Z,20.11
2016-10-01T08:20:13.306Z,20.13
2016-10-01T08:21:12.841Z,20.16
2016-10-01T08:22:13.245Z,20.19
2016-10-01T08:23:13.206Z,20.19
2016-10-01T08:24:14.183Z,20.16
2016-10-01T08:25:14.360Z,20.19
2016-10-01T08:26:13.734Z,20.09
2016-10-01T08:27:13.609Z,20.08
2016-10-01T08:28:12.003Z,20.13
2016-10-01T08:29:13.349Z,20.12
2016-10-01T08:30:18.652Z,20.20
2016-10-01T08:31:12.702Z,20.20
2016-10-01T08:32:12.176Z,20.13
2016-10-01T08:33:12.474Z,20.10
2016-10-01T08:34:12.905Z,20.11
2016-10-01T08:35:12.825Z,20.07
2016-10-01T08:36:12.553Z,19.96
2016-10-01T08:37:09.340Z,20.01
2016-10-01T08:38:12.885Z,20.03
2016-10-01T08:39:12.858Z,20.00
2016-10-01T08:40:12.274Z,20.00
2016-10-01T08:41:12.821Z,20.07
2016-10-01T08:42:13.065Z,20.17
2016-10-01T08:43:14.038Z,20.67
2016-10-01T08:44:12.479Z,20.68
2016-10-01T08:45:12.497Z,20.73
2016-10-01T08:46:13.801Z,20.79
2016-10-01T08:47:12.303Z,20.73
2016-10-01T08:48:13.030Z,20.35
2016-10-01T08:49:13.235Z,20.50
2016-10-01T08:50:13.236Z,20.62
2016-10-01T08:51:12.576Z,20.75
2016-10-01T08:52:12.749Z,20.87
2016-10-01T08:53:14.906Z,21.46
2016-10-01T08:54:12.246Z,21.00
2016-10-01T08:55:12.729Z,20.84
2016-10-01T08:56:12.859Z,20.72
2016-10-01T08:57:12.888Z,21.20
2016-10-01T08:58:12.479Z,21.22
2016-10-01T08:59:13.661Z,20.70
2016-10-01T09:00:12.109Z,20.66
2016-10-01T09:01:13.022Z,20.60
2016-10-01T09:02:18.563Z,20.53
2016-10-01T09:03:12.949Z,20.60
2016-10-01T09:04:12.676Z,20.63
2016-10-01T09:05:12.604Z,20.57
2016-10-01T09:06:12.707Z,20.57
2016-10-01T09:07:12.263Z,20.57
2016-10-01T09:08:12.817Z,20.57
2016-10-01T09:09:12.652Z,20.59
2016-10-01T09:10:12.466Z,21.12
2016-10-01T09:11:12.882Z,21.24
2016-10-01T09:12:13.061Z,20.79
2016-10-01T09:13:11.243Z,21.24
2016-10-01T09:14:10.068Z,21.31
2016-10-01T09:15:12.843Z,21.33
2016-10-01T09:16:12.798Z,21.36
2016-10-01T09:17:13.743Z,21.37
2016-10-01T09:18:12.225Z,21.44
2016-10-01T09:19:14.780Z,20.87
2016-10-01T09:20:12.836Z,20.80
2016-10-01T09:21:14.148Z,21.29
2016-10-01T09:22:13.195Z,21.29
2016-10-01T09:23:12.673Z,21.33
2016-10-01T09:24:13.014Z,21.35
2016-10-01T09:25:13.015Z,21.32
2016-10-01T09:26:12.589Z,21.35
2016-10-01T09:27:12.430Z,21.31
2016-10-01T09:28:12.835Z,21.36
2016-10-01T09:29:12.335Z,21.05
2016-10-01T09:30:12.842Z,20.83
2016-10-01T09:31:12.486Z,20.83
2016-10-01T09:32:13.063Z,20.79
2016-10-01T09:33:13.191Z,20.77
2016-10-01T09:34:13.507Z,20.77
2016-10-01T09:35:12.573Z,20.77
2016-10-01T09:36:12.089Z,20.74
2016-10-01T09:37:12.555Z,20.83
2016-10-01T09:38:12.898Z,20.94
2016-10-01T09:39:12.865Z,21.02
2016-10-01T09:40:12.873Z,21.12
2016-10-01T09:41:12.372Z,21.21
2016-10-01T09:42:13.403Z,21.27
2016-10-01T09:43:13.415Z,21.42
2016-10-01T09:44:15.490Z,21.41
2016-10-01T09:45:13.092Z,21.46
2016-10-01T09:46:12.848Z,21.48
2016-10-01T09:47:13.214Z,21.50
2016-10-01T09:48:13.434Z,21.59
2016-10-01T09:49:13.437Z,21.90
2016-10-01T09:50:13.494Z,22.27
2016-10-01T09:51:13.664Z,22.72
2016-10-01T09:52:12.544Z,22.30
2016-10-01T09:53:12.813Z,22.15
2016-10-01T09:54:12.285Z,22.03
2016-10-01T09:55:12.840Z,21.96
2016-10-01T09:56:12.462Z,21.91
2016-10-01T09:57:13.153Z,21.89
2016-10-01T09:58:13.344Z,21.86
2016-10-01T09:59:13.609Z,21.85
2016-10-01T10:00:10.888Z,21.82
2016-10-01T10:01:13.935Z,21.80
2016-10-01T10:02:13.277Z,21.81
2016-10-01T10:03:13.596Z,21.84
2016-10-01T10:04:12.842Z,22.00
2016-10-01T10:05:12.479Z,22.51
2016-10-01T10:06:13.368Z,22.55
2016-10-01T10:07:12.858Z,22.53
2016-10-01T10:08:13.314Z,22.51
2016-10-01T10:09:10.081Z,22.49
2016-10-01T10:10:13.200Z,22.50
2016-10-01T10:11:09.914Z,22.49
2016-10-01T10:12:14.048Z,22.50
2016-10-01T10:13:13.319Z,22.51
2016-10-01T10:14:10.741Z,22.50
2016-10-01T10:15:12.826Z,22.51
2016-10-01T10:16:14.152Z,22.50
2016-10-01T10:17:13.191Z,21.97
2016-10-01T10:18:14.385Z,21.97
2016-10-01T10:19:12.749Z,21.95
2016-10-01T10:20:12.180Z,21.89
2016-10-01T10:21:12.559Z,21.88
2016-10-01T10:22:12.568Z,21.86
2016-10-01T10:23:12.625Z,21.91
2016-10-01T10:24:14.809Z,22.09
2016-10-01T10:25:10.985Z,22.28
2016-10-01T10:26:09.588Z,22.15
2016-10-01T10:27:13.208Z,22.10
2016-10-01T10:28:12.842Z,22.04
2016-10-01T10:29:12.463Z,22.04
2016-10-01T10:30:13.041Z,22.03
2016-10-01T10:31:13.273Z,22.03
2016-10-01T10:32:13.204Z,22.06
2016-10-01T10:33:13.025Z,22.55
2016-10-01T10:34:15.173Z,22.63
2016-10-01T10:35:12.763Z,22.62
2016-10-01T10:36:14.014Z,22.23
2016-10-01T10:37:12.441Z,21.98
2016-10-01T10:38:13.024Z,21.89
2016-10-01T10:39:13.015Z,22.02
2016-10-01T10:40:12.557Z,21.86
2016-10-01T10:41:13.719Z,21.87
2016-10-01T10:42:12.154Z,21.88
2016-10-01T10:43:14.369Z,21.91
2016-10-01T10:44:13.306Z,21.94
2016-10-01T10:45:12.734Z,21.92
2016-10-01T10:46:14.932Z,21.89
2016-10-01T10:47:12.525Z,21.90
2016-10-01T10:48:11.122Z,21.84
2016-10-01T10:49:13.047Z,21.98
2016-10-01T10:50:09.710Z,21.88
2016-10-01T10:51:12.573Z,21.85
2016-10-01T10:52:12.115Z,21.84
2016-10-01T10:53:11.478Z,21.76
2016-10-01T10:54:13.436Z,21.75
2016-10-01T10:55:12.843Z,21.74
2016-10-01T10:56:13.016Z,21.79
2016-10-01T10:57:15.149Z,22.22
2016-10-01T10:58:13.352Z,21.76
2016-10-01T10:59:12.645Z,21.66
2016-10-01T11:00:12.588Z,21.71
2016-10-01T11:01:13.922Z,21.71
2016-10-01T11:02:13.050Z,21.78
2016-10-01T11:03:11.280Z,22.26
2016-10-01T11:04:10.099Z,21.77
2016-10-01T11:05:13.169Z,21.76
2016-10-01T11:06:13.250Z,21.82
2016-10-01T11:07:13.382Z,21.83
2016-10-01T11:08:13.013Z,21.85
2016-10-01T11:09:13.196Z,21.86
2016-10-01T11:10:12.566Z,21.87
2016-10-01T11:11:15.253Z,21.83
2016-10-01T11:12:13.812Z,21.81
2016-10-01T11:13:12.914Z,21.84
2016-10-01T11:14:12.365Z,21.86
2016-10-01T11:15:12.708Z,21.86
2016-10-01T11:16:12.095Z,21.88
2016-10-01T11:17:12.906Z,21.91
2016-10-01T11:18:12.930Z,21.97
2016-10-01T11:19:12.525Z,22.49
2016-10-01T11:20:12.730Z,22.56
2016-10-01T11:21:12.745Z,22.60
2016-10-01T11:22:13.652Z,22.62
2016-10-01T11:23:14.247Z,22.65
2016-10-01T11:24:13.843Z,22.29
2016-10-01T11:25:12.435Z,22.17
2016-10-01T11:26:12.875Z,22.09
2016-10-01T11:27:12.457Z,22.07
2016-10-01T11:28:13.067Z,22.07
2016-10-01T11:29:10.907Z,22.05
2016-10-01T11:30:12.365Z,22.07
2016-10-01T11:31:13.442Z,22.07
2016-10-01T11:32:10.075Z,22.07
2016-10-01T11:33:13.139Z,22.07
2016-10-01T11:34:13.191Z,22.08
2016-10-01T11:35:13.430Z,22.08
2016-10-01T11:36:13.298Z,22.08
2016-10-01T11:37:12.832Z,22.09
2016-10-01T11:38:12.360Z,22.10
2016-10-01T11:39:13.012Z,22.09
2016-10-01T11:40:13.026Z,22.10
2016-10-01T11:41:12.597Z,22.10
2016-10-01T11:42:12.804Z,22.11
2016-10-01T11:43:12.406Z,22.11
2016-10-01T11:44:12.847Z,22.13
2016-10-01T11:45:14.827Z,22.12
2016-10-01T11:46:09.302Z,22.11
2016-10-01T11:47:12.745Z,22.12
2016-10-01T11:48:12.843Z,22.13
2016-10-01T11:49:12.318Z,22.14
2016-10-01T11:50:13.320Z,22.15
2016-10-01T11:51:13.428Z,22.15
2016-10-01T11:52:12.835Z,22.15
2016-10-01T11:53:12.323Z,22.15
2016-10-01T11:54:13.193Z,22.15
2016-10-01T11:55:13.405Z,22.16
2016-10-01T11:56:13.455Z,22.16
2016-10-01T11:57:13.031Z,22.17
2016-10-01T11:58:15.191Z,22.16
2016-10-01T11:59:12.432Z,22.17
2016-10-01T12:00:14.552Z,22.17
2016-10-01T12:01:10.986Z,22.17
2016-10-01T12:02:13.253Z,22.18
2016-10-01T12:03:12.840Z,22.20
2016-10-01T12:04:12.634Z,22.19
2016-10-01T12:05:12.748Z,22.19
2016-10-01T12:06:12.817Z,22.25
2016-10-01T12:07:12.531Z,22.20
2016-10-01T12:08:14.511Z,22.20
2016-10-01T12:09:12.906Z,22.20
2016-10-01T12:10:14.696Z,22.20
2016-10-01T12:11:12.734Z,22.21
2016-10-01T12:12:16.548Z,22.21
2016-10-01T12:13:12.798Z,22.21
2016-10-01T12:14:12.346Z,22.23
2016-10-01T12:15:11.626Z,22.22
2016-10-01T12:16:12.622Z,22.78
2016-10-01T12:17:12.234Z,22.84
2016-10-01T12:18:12.875Z,22.87
2016-10-01T12:19:12.237Z,22.36
2016-10-01T12:20:13.573Z,22.33
2016-10-01T12:21:12.176Z,22.34
2016-10-01T12:22:12.659Z,22.32
2016-10-01T12:23:12.855Z,22.39
2016-10-01T12:24:12.572Z,22.43
2016-10-01T12:25:12.152Z,22.49
2016-10-01T12:26:11.446Z,22.48
2016-10-01T12:27:13.000Z,22.64
2016-10-01T12:28:14.005Z,22.46
2016-10-01T12:29:10.702Z,22.42
2016-10-01T12:30:13.332Z,22.40
2016-10-01T12:31:12.855Z,22.38
2016-10-01T12:32:13.092Z,22.37
2016-10-01T12:33:13.231Z,22.38
2016-10-01T12:34:16.534Z,22.37
2016-10-01T12:35:12.256Z,22.44
2016-10-01T12:36:12.840Z,22.36
2016-10-01T12:37:13.971Z,22.38
2016-10-01T12:38:13.035Z,22.43
2016-10-01T12:39:14.341Z,22.38
2016-10-01T12:40:12.704Z,22.37
2016-10-01T12:41:12.225Z,22.37
2016-10-01T12:42:12.904Z,22.37
2016-10-01T12:43:12.296Z,22.41
2016-10-01T12:44:12.835Z,22.39
2016-10-01T12:45:12.834Z,22.39
2016-10-01T12:46:12.793Z,22.38
2016-10-01T12:47:12.835Z,22.43
2016-10-01T12:48:12.823Z,22.42
2016-10-01T12:49:12.228Z,22.41
2016-10-01T12:50:13.538Z,22.42
2016-10-01T12:51:13.456Z,22.42
2016-10-01T12:52:13.681Z,22.47